Big Bear Station Historical Data
Daily Summary for May 26, 2017 Units:  English    Metric   Both
« Previous Day
Next Day »
Daily Weekly Monthly Yearly Custom
  High: Low: Average:
Temperature: 69.1 °F 43.0 °F 55 °F
Dew Point: 43.2 °F 6.2 °F 23.2 °F
Humidity: 44 % 19 % 29 %
Wind Speed: 6.8 mph 0.0 mph 2.6 mph
Wind Gust: -999.0 mph - -
Wind:- - WSW
Pressure: 30.14 in 30.00 in -
Precipitation: 0.00 in    
Historical Graphs
 
 
Tabular Data for May 26, 2017
Time Temperature Dew Point Pressure Wind Wind Speed Wind Gust Humidity Rainfall Rate (Hourly)
00:02 46.2 °F 6.2 °F 30.01 in Calm   -999.0 mph 19 % 0 in
00:17 46.6 °F 6.5 °F 30.01 in SSE 2.7 mph -999.0 mph 19 % 0 in
00:33 47.1 °F 6.9 °F 30.01 in Calm   -999.0 mph 19 % 0 in
00:48 45.5 °F 9.8 °F 30.01 in SE 1.7 mph -999.0 mph 23 % 0 in
01:03 44.8 °F 8.2 °F 30.00 in SE 2.7 mph -999.0 mph 22 % 0 in
01:19 45.3 °F 7.6 °F 30.01 in Calm   -999.0 mph 21 % 0 in
01:34 45.7 °F 7.9 °F 30.00 in Calm   -999.0 mph 21 % 0 in
01:49 45.5 °F 7.8 °F 30.00 in Calm   -999.0 mph 21 % 0 in
02:04 45.9 °F 8.1 °F 30.00 in Calm   -999.0 mph 21 % 0 in
02:20 46.0 °F 8.2 °F 30.01 in Calm   -999.0 mph 21 % 0 in
02:35 46.0 °F 8.2 °F 30.01 in Calm   -999.0 mph 21 % 0 in
02:50 46.8 °F 8.9 °F 30.01 in South 1.7 mph -999.0 mph 21 % 0 in
03:05 46.2 °F 9.4 °F 30.00 in West 2.7 mph -999.0 mph 22 % 0 in
03:20 45.5 °F 10.8 °F 30.00 in SE 2.2 mph -999.0 mph 24 % 0 in
03:36 45.1 °F 9.5 °F 30.00 in Calm   -999.0 mph 23 % 0 in
03:51 44.4 °F 10.7 °F 30.00 in Calm   -999.0 mph 25 % 0 in
04:07 43.7 °F 11.9 °F 30.00 in Calm   -999.0 mph 27 % 0 in
04:22 43.0 °F 12.1 °F 30.00 in SSE 1.7 mph -999.0 mph 28 % 0 in
04:37 43.5 °F 10.8 °F 30.00 in South 1.7 mph -999.0 mph 26 % 0 in
04:52 43.5 °F 10.0 °F 30.00 in Calm   -999.0 mph 25 % 0 in
05:07 44.2 °F 12.3 °F 30.01 in South 2.2 mph -999.0 mph 27 % 0 in
05:23 44.2 °F 13.1 °F 30.01 in South 2.2 mph -999.0 mph 28 % 0 in
05:38 44.4 °F 13.3 °F 30.01 in SSW 2.2 mph -999.0 mph 28 % 0 in
05:53 45.0 °F 13.0 °F 30.01 in South 2.2 mph -999.0 mph 27 % 0 in
06:08 45.0 °F 12.1 °F 30.01 in Calm   -999.0 mph 26 % 0 in
06:24 45.5 °F 12.6 °F 30.02 in Calm   -999.0 mph 26 % 0 in
06:39 45.9 °F 13.8 °F 30.02 in Calm   -999.0 mph 27 % 0 in
06:54 46.6 °F 13.5 °F 30.02 in Calm   -999.0 mph 26 % 0 in
07:09 47.7 °F 15.3 °F 30.03 in NW 1.1 mph -999.0 mph 27 % 0 in
07:24 49.3 °F 17.5 °F 30.03 in West 2.7 mph -999.0 mph 28 % 0 in
07:40 50.4 °F 16.8 °F 30.03 in WNW 4.7 mph -999.0 mph 26 % 0 in
07:55 51.3 °F 18.4 °F 30.03 in WNW 3.2 mph -999.0 mph 27 % 0 in
08:10 52.7 °F 18.7 °F 30.04 in West 3.2 mph -999.0 mph 26 % 0 in
08:25 53.8 °F 19.7 °F 30.04 in WNW 3.7 mph -999.0 mph 26 % 0 in
08:40 54.9 °F 19.7 °F 30.05 in SSE 1.7 mph -999.0 mph 25 % 0 in
08:56 56.3 °F 24.4 °F 30.05 in WNW 1.7 mph -999.0 mph 29 % 0 in
09:12 57.2 °F 22.6 °F 30.05 in SSW 2.2 mph -999.0 mph 26 % 0 in
09:28 59.5 °F 25.5 °F 30.06 in NNW 3.7 mph -999.0 mph 27 % 0 in
09:43 61.2 °F 25.1 °F 30.06 in WNW 2.2 mph -999.0 mph 25 % 0 in
10:13 61.7 °F 27.4 °F 30.06 in NW 3.7 mph -999.0 mph 27 % 0 in
10:28 62.2 °F 26.9 °F 30.06 in WSW 2.7 mph -999.0 mph 26 % 0 in
10:44 63.1 °F 27.6 °F 30.07 in SW 2.7 mph -999.0 mph 26 % 0 in
10:59 63.5 °F 33.9 °F 30.07 in SW 6.3 mph -999.0 mph 33 % 0 in
11:14 64.2 °F 33.7 °F 30.08 in NW 6.8 mph -999.0 mph 32 % 0 in
11:45 66.9 °F 31.8 °F 30.08 in NNW 6.3 mph -999.0 mph 27 % 0 in
12:00 67.8 °F 33.5 °F 30.08 in NNW 6.3 mph -999.0 mph 28 % 0 in
12:15 67.6 °F 37.5 °F 30.09 in NNW 5.3 mph -999.0 mph 33 % 0 in
12:30 68.0 °F 37.0 °F 30.09 in NW 4.7 mph -999.0 mph 32 % 0 in
12:46 69.1 °F 31.8 °F 30.09 in NE 4.7 mph -999.0 mph 25 % 0 in
13:02 68.5 °F 38.3 °F 30.10 in NNW 4.7 mph -999.0 mph 33 % 0 in
13:17 68.5 °F 34.1 °F 30.10 in NW 4.7 mph -999.0 mph 28 % 0 in
13:33 68.2 °F 32.0 °F 30.10 in North 6.3 mph -999.0 mph 26 % 0 in
13:48 68.4 °F 38.2 °F 30.10 in NW 5.8 mph -999.0 mph 33 % 0 in
14:04 67.1 °F 41.3 °F 30.10 in NNW 4.7 mph -999.0 mph 39 % 0 in
14:19 67.3 °F 40.1 °F 30.10 in NNW 5.3 mph -999.0 mph 37 % 0 in
14:34 65.7 °F 43.2 °F 30.10 in NW 5.8 mph -999.0 mph 44 % 0 in
14:49 65.5 °F 42.4 °F 30.10 in NW 5.3 mph -999.0 mph 43 % 0 in
15:05 64.6 °F 42.2 °F 30.11 in NNE 3.7 mph -999.0 mph 44 % 0 in
15:21 64.9 °F 41.3 °F 30.11 in NNW 4.7 mph -999.0 mph 42 % 0 in
15:36 64.4 °F 41.4 °F 30.11 in NW 6.3 mph -999.0 mph 43 % 0 in
15:51 64.4 °F 41.4 °F 30.11 in NNW 5.8 mph -999.0 mph 43 % 0 in
16:06 64.6 °F 40.4 °F 30.11 in NW 4.7 mph -999.0 mph 41 % 0 in
16:22 64.9 °F 38.0 °F 30.11 in NNE 5.3 mph -999.0 mph 37 % 0 in
16:37 67.8 °F 36.9 °F 30.11 in North 4.7 mph -999.0 mph 32 % 0 in
16:53 68.0 °F 38.6 °F 30.11 in West 3.7 mph -999.0 mph 34 % 0 in
17:08 68.2 °F 38.0 °F 30.11 in WNW 4.7 mph -999.0 mph 33 % 0 in
17:23 66.4 °F 41.3 °F 30.11 in NW 3.7 mph -999.0 mph 40 % 0 in
17:39 64.6 °F 39.7 °F 30.11 in NNE 3.7 mph -999.0 mph 40 % 0 in
17:54 64.4 °F 35.4 °F 30.11 in NW 4.2 mph -999.0 mph 34 % 0 in
18:09 65.1 °F 33.7 °F 30.11 in WNW 5.3 mph -999.0 mph 31 % 0 in
18:24 64.2 °F 36.7 °F 30.10 in West 3.2 mph -999.0 mph 36 % 0 in
18:39 62.8 °F 38.7 °F 30.10 in NW 1.1 mph -999.0 mph 41 % 0 in
18:55 62.2 °F 40.0 °F 30.11 in NW 4.2 mph -999.0 mph 44 % 0 in
19:10 61.0 °F 35.9 °F 30.11 in NW 3.2 mph -999.0 mph 39 % 0 in
19:25 58.1 °F 30.6 °F 30.11 in NNW 3.2 mph -999.0 mph 35 % 0 in
19:40 55.8 °F 28.5 °F 30.11 in WNW 2.7 mph -999.0 mph 35 % 0 in
19:56 54.0 °F 29.0 °F 30.11 in NE 2.7 mph -999.0 mph 38 % 0 in
20:11 53.2 °F 23.3 °F 30.11 in Calm   -999.0 mph 31 % 0 in
20:26 52.7 °F 21.3 °F 30.12 in WNW 1.7 mph -999.0 mph 29 % 0 in
20:41 52.3 °F 18.4 °F 30.11 in Calm   -999.0 mph 26 % 0 in
20:56 51.6 °F 17.8 °F 30.12 in Calm   -999.0 mph 26 % 0 in
21:12 51.3 °F 16.6 °F 30.12 in Calm   -999.0 mph 25 % 0 in
21:27 50.9 °F 19.7 °F 30.13 in Calm   -999.0 mph 29 % 0 in
21:42 50.2 °F 19.1 °F 30.13 in Calm   -999.0 mph 29 % 0 in
21:57 49.5 °F 17.7 °F 30.14 in South 2.2 mph -999.0 mph 28 % 0 in
22:13 48.6 °F 15.2 °F 30.13 in Calm   -999.0 mph 26 % 0 in
22:28 48.2 °F 15.7 °F 30.13 in Calm   -999.0 mph 27 % 0 in
22:43 48.9 °F 16.4 °F 30.14 in SSE 1.7 mph -999.0 mph 27 % 0 in
22:58 47.8 °F 16.2 °F 30.14 in ESE 1.7 mph -999.0 mph 28 % 0 in
23:13 47.3 °F 15.8 °F 30.14 in South 2.2 mph -999.0 mph 28 % 0 in
23:29 47.3 °F 15.8 °F 30.14 in SSE 2.2 mph -999.0 mph 28 % 0 in
23:44 46.9 °F 13.8 °F 30.14 in South 2.2 mph -999.0 mph 26 % 0 in
23:59 46.0 °F 13.0 °F 30.14 in South 1.1 mph -999.0 mph 26 % 0 in
Big Bear CA Weather
Compliments of Weather Underground - 1.5 mb